Westwood Rainier — C6SI3 — position and weather

sailwx.info

Track history (hours):
 
Tides and Currents Weather Stations Pressure Air Temp Water Temp Dewpoint Dewpoint Depression Visibility Wind Speed Wind Dir Waves Ship Positions

Westwood Rainier

Last reported at 2017-May-26 06:00 UTC. Time now 2017-May-26 16:38 UTC.
Position N 52°00' W 145°42'.

Type: Cargo ship. MMSI: 311348993.

Wind from 340 at 10 knots

Barometer 1027.7 mb
Air temperature 7.0 ° C
Visibility: greater than 5.4 NM
Dewpoint 4.7 ° C

Date/timePositionNaut miles runAvg speedWind from/ knotsBaromVisibWave heightAir tempDewpointWater temp
2017-May-26 06:00N 52°00' W 145°42'15813.1 340 / 101027.7 5.4 7.0 4.7
2017-May-25 18:00N 51°00' W 141°48'42370.6 270 / 111030.4 5.4 7.0 2.1
2017-May-25 12:00N 50°24' W 130°42'27145.1 360 / 221031.6 5.4 9.0 4.5 7.0
2017-May-25 06:00N 49°54' W 137°42'8614.3 360 / 261032.2 5.4 7.0 4.7
2017-May-25 00:00N 49°18' W 135°42'7712.8 360 / 301032.7 2.2 9.0 6.9 8.0
2017-May-24 18:00N 48°48' W 133°54'7913.1 360 / 361031.8 5.4 9.0 4.5
2017-May-24 12:00N 49°30' W 132°12'16513.7 320 / 351028.9 5.4 14.0 8.0
2017-May-24 00:00N 48°30' W 128°18'7612.6 320 / 401024.110.8 13.0 6.8
2017-May-23 18:00N 48°24' W 126°24'7423.6 340 / 261020.5 2.2 13.011.1
2017-May-23 17:59N 48°30' W 126°29'613.0
2017-May-23 17:30N 48°30' W 126°20'713.1
2017-May-23 17:00N 48°30' W 126°10'713.1
2017-May-23 16:30N 48°31' W 126°00'613.0
2017-May-23 16:00N 48°31' W 125°50'713.0
2017-May-23 15:30N 48°31' W 125°40'713.3
2017-May-23 15:00N 48°30' W 125°30'1414.3
2017-May-23 14:00N 48°31' W 125°09'713.8
2017-May-23 13:30N 48°31' W 124°58'714.3
2017-May-23 13:00N 48°31' W 124°48'714.5
2017-May-23 12:30N 48°29' W 124°37'815.0
2017-May-23 12:00N 48°26' W 124°27'714.5
2017-May-23 11:30N 48°23' W 124°17'714.1
2017-May-23 11:00N 48°20' W 124°07'714.0
2017-May-23 10:30N 48°18' W 123°57'713.7
2017-May-23 10:00N 48°17' W 123°47'713.3
2017-May-23 09:30N 48°16' W 123°37'3 6.2
2017-May-23 09:00N 48°15' W 123°32'611.3
2017-May-23 08:29N 48°12' W 123°25'5 9.8
2017-May-23 07:59N 48°09' W 123°19'713.9
2017-May-23 07:30N 48°12' W 123°10'714.2
2017-May-23 07:00N 48°12' W 122°59'714.3
2017-May-23 06:30N 48°11' W 122°48'713.3
2017-May-23 05:59N 48°07' W 122°40'714.4
2017-May-23 05:30N 48°01' W 122°37'714.3
2017-May-23 05:01N 47°56' W 122°30'815.4
2017-May-23 04:31N 47°48' W 122°27'714.4
2017-May-23 04:01N 47°41' W 122°27'815.2
2017-May-23 03:31N 47°33' W 122°26'714.9
2017-May-23 03:00N 47°26' W 122°23'612.4
2017-May-23 02:30N 47°20' W 122°26'4 0.4
2017-May-22 15:06N 47°16' W 122°25'0 1.1
2017-May-22 14:40N 47°16' W 122°25'4 6.0
2017-May-22 14:00N 47°20' W 122°27'612.0
2017-May-22 13:30N 47°26' W 122°24'815.5
2017-May-22 13:00N 47°34' W 122°27'815.2
2017-May-22 12:30N 47°41' W 122°28'714.9
2017-May-22 12:00N 47°49' W 122°28'714.4
2017-May-22 11:30N 47°56' W 122°31'713.6
2017-May-22 11:00N 48°01' W 122°38'713.6
2017-May-22 10:28N 48°07' W 122°42'714.3
2017-May-22 10:00N 48°11' W 122°50'815.2
2017-May-22 09:30N 48°12' W 123°01'815.9
2017-May-22 09:00N 48°12' W 123°13'813.7
2017-May-22 08:24N 48°11' W 123°25'512.0
2017-May-22 08:00N 48°15' W 123°29'714.2
2017-May-22 07:30N 48°21' W 123°25'5 9.9
2017-May-22 06:59N 48°23' W 123°18'4 7.6
2017-May-22 06:30N 48°25' W 123°13'713.9
2017-May-22 05:59N 48°32' W 123°13'715.1
2017-May-22 05:30N 48°39' W 123°15'612.3
2017-May-22 05:00N 48°44' W 123°09'714.6
2017-May-22 04:30N 48°48' W 123°00'815.0
2017-May-22 04:00N 48°54' W 123°08'815.8
2017-May-22 03:31N 48°59' W 123°17'714.8
2017-May-22 03:00N 49°05' W 123°24'714.2
2017-May-22 02:30N 49°12' W 123°22'713.3
2017-May-22 02:00N 49°18' W 123°17'612.5
2017-May-22 01:30N 49°19' W 123°08'2 3.3
2017-May-22 01:00N 49°17' W 123°06'0 0.0
2017-May-22 00:28N 49°17' W 123°06'0 0.0
2017-May-21 23:58N 49°17' W 123°06'0 0.0
2017-May-21 23:28N 49°17' W 123°06'0 0.0
2017-May-21 22:58N 49°17' W 123°06'0 0.0
2017-May-21 22:28N 49°17' W 123°06'0 0.0
2017-May-21 21:58N 49°17' W 123°06'0 0.0
2017-May-21 21:28N 49°17' W 123°06'0 0.0
2017-May-21 20:58N 49°17' W 123°06'0 0.0
2017-May-21 20:28N 49°17' W 123°06'0 0.0
2017-May-21 19:58N 49°17' W 123°06'0 0.0
2017-May-21 19:28N 49°17' W 123°06'0 0.0
2017-May-21 18:58N 49°17' W 123°06'0 0.0
2017-May-21 18:28N 49°17' W 123°06'0 0.0
2017-May-21 17:58N 49°17' W 123°06'0 0.0
2017-May-21 17:28N 49°17' W 123°06'0 0.0
2017-May-21 16:58N 49°17' W 123°06'0 0.0
2017-May-21 16:28N 49°17' W 123°06'0 0.0
2017-May-21 15:58N 49°17' W 123°06'0 0.1
2017-May-21 15:28N 49°17' W 123°06'0 0.0
2017-May-21 14:58N 49°17' W 123°06'0 0.0
2017-May-21 13:58N 49°17' W 123°06'0 0.0
2017-May-21 13:28N 49°17' W 123°06'0 0.1
2017-May-21 13:01N 49°17' W 123°06'0 0.8
2017-May-21 12:31N 49°18' W 123°06'2 4.5
2017-May-21 12:01N 49°18' W 123°02'0 0.1
2017-May-21 11:30N 49°18' W 123°02'0 0.0
2017-May-21 11:01N 49°18' W 123°02'0 0.0
2017-May-21 10:30N 49°18' W 123°02'0 0.0
2017-May-21 10:00N 49°18' W 123°02'0 0.0
2017-May-21 09:30N 49°18' W 123°02'0 0.0
2017-May-21 09:00N 49°18' W 123°02'0 0.0
2017-May-21 08:30N 49°18' W 123°02'0 0.0
2017-May-21 08:00N 49°18' W 123°02'0 0.0
2017-May-21 07:30N 49°18' W 123°02'0 0.0
2017-May-21 07:00N 49°18' W 123°02'0 0.0
2017-May-21 06:30N 49°18' W 123°02'0 0.0
2017-May-21 06:00N 49°18' W 123°02'0 0.0
2017-May-21 05:30N 49°18' W 123°02'0 0.0
2017-May-21 05:00N 49°18' W 123°02'0 0.0
2017-May-21 04:30N 49°18' W 123°02'0 0.0
2017-May-21 04:00N 49°18' W 123°02'0 0.0
2017-May-21 03:30N 49°18' W 123°02'0 0.0
2017-May-21 02:57N 49°18' W 123°02'0 0.0
2017-May-21 02:30N 49°18' W 123°02'0 0.0
2017-May-21 02:00N 49°18' W 123°02'0 0.0
2017-May-21 01:27N 49°18' W 123°02'0 0.0
2017-May-21 00:51N 49°18' W 123°02'0 0.0
2017-May-21 00:30N 49°18' W 123°02'0 0.0
2017-May-21 00:00N 49°18' W 123°02'0 0.0
2017-May-20 23:30N 49°18' W 123°02'0 0.0
2017-May-20 23:00N 49°18' W 123°02'0 0.0
2017-May-20 22:30N 49°18' W 123°02'0 0.0
2017-May-20 21:57N 49°18' W 123°02'0 0.0
2017-May-20 21:30N 49°18' W 123°02'0 0.0
2017-May-20 20:57N 49°18' W 123°02'0 0.0
2017-May-20 20:27N 49°18' W 123°02'0 0.0
2017-May-20 20:00N 49°18' W 123°02'0 0.0
2017-May-20 19:27N 49°18' W 123°02'0 0.0
2017-May-20 18:51N 49°18' W 123°02'0 0.0
2017-May-20 18:21N 49°18' W 123°02'0 0.0
2017-May-20 18:00N 49°18' W 123°02'0 0.0
2017-May-20 17:30N 49°18' W 123°02'0 0.0
2017-May-20 16:57N 49°18' W 123°02'0 0.0
2017-May-20 16:30N 49°18' W 123°02'0 0.0
2017-May-20 15:57N 49°18' W 123°02'0 0.0
2017-May-20 15:27N 49°18' W 123°02'0 0.0
2017-May-20 14:57N 49°18' W 123°02'0 0.0
2017-May-20 13:57N 49°18' W 123°02'0 0.0
2017-May-20 13:30N 49°18' W 123°02'0 0.0
2017-May-20 12:57N 49°18' W 123°02'0 0.0
2017-May-20 12:27N 49°18' W 123°02'0 0.0
2017-May-20 11:57N 49°18' W 123°02'0 0.0
2017-May-20 11:27N 49°18' W 123°02'0 0.0
2017-May-20 11:00N 49°18' W 123°02'0 0.0
2017-May-20 10:30N 49°18' W 123°02'0 0.0
2017-May-20 10:00N 49°18' W 123°02'0 0.0
2017-May-20 09:30N 49°18' W 123°02'0 0.0
2017-May-20 09:00N 49°18' W 123°02'0 0.0
2017-May-20 08:30N 49°18' W 123°02'0 0.0
2017-May-20 08:00N 49°18' W 123°02'0 0.0
2017-May-20 07:30N 49°18' W 123°02'0 0.0
2017-May-20 06:57N 49°18' W 123°02'0 0.0
2017-May-20 06:30N 49°18' W 123°02'0 0.0
2017-May-20 06:00N 49°18' W 123°02'0 0.0
2017-May-20 05:30N 49°18' W 123°02'0 0.0
2017-May-20 05:00N 49°18' W 123°02'0 0.0
2017-May-20 04:30N 49°18' W 123°02'0 0.0
2017-May-20 04:00N 49°18' W 123°02'0 0.0
2017-May-20 03:30N 49°18' W 123°02'0 0.0
2017-May-20 03:00N 49°18' W 123°02'0 0.0
2017-May-20 02:27N 49°18' W 123°02'0 0.0
2017-May-20 01:54N 49°18' W 123°02'0 0.0
2017-May-20 01:27N 49°18' W 123°02'0 0.0
2017-May-20 00:57N 49°18' W 123°02'0 0.0
2017-May-20 00:21N 49°18' W 123°02'0 0.0
2017-May-19 23:57N 49°18' W 123°02'0 0.0
2017-May-19 23:27N 49°18' W 123°02'0 0.0
2017-May-19 23:00N 49°18' W 123°02'0 0.0
2017-May-19 22:27N 49°18' W 123°02'0 0.0
2017-May-19 22:00N 49°18' W 123°02'0 0.0
2017-May-19 21:27N 49°18' W 123°02'0 0.0
2017-May-19 20:57N 49°18' W 123°02'0 0.0
2017-May-19 20:24N 49°18' W 123°02'0 0.0
2017-May-19 19:57N 49°18' W 123°02'0 0.0
2017-May-19 19:27N 49°18' W 123°02'0 0.0
2017-May-19 19:00N 49°18' W 123°02'0 0.0
2017-May-19 18:30N 49°18' W 123°02'0 0.0
2017-May-19 18:00N 49°18' W 123°02'0 0.0
2017-May-19 17:30N 49°18' W 123°02'0 0.0
2017-May-19 17:00N 49°18' W 123°02'0 0.0
2017-May-19 16:30N 49°18' W 123°02'0 0.0
2017-May-19 16:00N 49°18' W 123°02'0 0.0
2017-May-19 15:30N 49°18' W 123°02'0 0.0
2017-May-19 14:51N 49°18' W 123°02'0 0.0
2017-May-19 14:00N 49°18' W 123°02'0 0.0
2017-May-19 13:30N 49°18' W 123°02'0 0.0
2017-May-19 13:00N 49°18' W 123°02'0 0.0
2017-May-19 12:30N 49°18' W 123°02'0 0.0
2017-May-19 12:00N 49°18' W 123°02'0 0.0
2017-May-19 11:30N 49°18' W 123°02'0 0.0
2017-May-19 11:00N 49°18' W 123°02'0 0.0
2017-May-19 10:30N 49°18' W 123°02'0 0.0
2017-May-19 10:00N 49°18' W 123°02'0 0.0
2017-May-19 09:30N 49°18' W 123°02'0 0.0
2017-May-19 09:00N 49°18' W 123°02'0 0.0
2017-May-19 08:30N 49°18' W 123°02'0 0.0
2017-May-19 08:00N 49°18' W 123°02'0 0.0
2017-May-19 07:30N 49°18' W 123°02'0 0.0
2017-May-19 07:00N 49°18' W 123°02'0 0.0
2017-May-19 06:30N 49°18' W 123°02'0 0.0
2017-May-19 06:00N 49°18' W 123°02'0 0.0
2017-May-19 05:27N 49°18' W 123°02'0 0.0
2017-May-19 05:00N 49°18' W 123°02'0 0.0
2017-May-19 04:30N 49°18' W 123°02'0 0.0
2017-May-19 04:00N 49°18' W 123°02'0 0.0
2017-May-19 03:30N 49°18' W 123°02'0 0.0
2017-May-19 02:48N 49°18' W 123°02'0 0.0
2017-May-19 02:27N 49°18' W 123°02'0 0.0
2017-May-19 02:00N 49°18' W 123°02'0 0.0
2017-May-19 01:27N 49°18' W 123°02'0 0.0
2017-May-19 00:57N 49°18' W 123°02'0 0.0
2017-May-19 00:27N 49°18' W 123°02'0 0.0
2017-May-18 23:57N 49°18' W 123°02'0 0.0
2017-May-18 23:27N 49°18' W 123°02'0 0.0
2017-May-18 22:57N 49°18' W 123°02'0 0.0
2017-May-18 22:27N 49°18' W 123°02'0 0.0
2017-May-18 22:00N 49°18' W 123°02'0 0.0
2017-May-18 21:30N 49°18' W 123°02'0 0.0
2017-May-18 21:00N 49°18' W 123°02'0 0.0
2017-May-18 20:27N 49°18' W 123°02'0 0.0
2017-May-18 20:00N 49°18' W 123°02'0 0.0
2017-May-18 19:30N 49°18' W 123°02'0 0.0
2017-May-18 19:00N 49°18' W 123°02'0 0.0
2017-May-18 18:27N 49°18' W 123°02'0 0.0
2017-May-18 18:00N 49°18' W 123°02'0 0.0
2017-May-18 17:27N 49°18' W 123°02'0 0.0
2017-May-18 16:54N 49°18' W 123°02'0 0.0
2017-May-18 16:30N 49°18' W 123°02'0 0.0
2017-May-18 15:54N 49°18' W 123°02'0 0.0
2017-May-18 15:30N 49°18' W 123°02'0 0.0
2017-May-18 15:00N 49°18' W 123°02'0 0.0
2017-May-18 14:00N 49°18' W 123°02'0 0.0
2017-May-18 13:30N 49°18' W 123°02'0 0.0
2017-May-18 13:00N 49°18' W 123°02'0 0.0
2017-May-18 12:30N 49°18' W 123°02'0 0.0
2017-May-18 12:00N 49°18' W 123°02'0 0.0
2017-May-18 11:30N 49°18' W 123°02'0 0.0
2017-May-18 11:00N 49°18' W 123°02'0 0.0
2017-May-18 10:24N 49°18' W 123°02'0 0.0
2017-May-18 10:00N 49°18' W 123°02'0 0.0
2017-May-18 09:30N 49°18' W 123°02'0 0.0
2017-May-18 09:00N 49°18' W 123°02'0 0.0
2017-May-18 08:30N 49°18' W 123°02'0 0.0
2017-May-18 08:00N 49°18' W 123°02'0 0.0
2017-May-18 07:30N 49°18' W 123°02'0 0.0
2017-May-18 06:57N 49°18' W 123°02'0 0.0
2017-May-18 06:30N 49°18' W 123°02'0 0.0
2017-May-18 06:00N 49°18' W 123°02'0 0.0
2017-May-18 05:30N 49°18' W 123°02'0 0.0
2017-May-18 05:00N 49°18' W 123°02'0 0.0
2017-May-18 04:30N 49°18' W 123°02'0 0.0
2017-May-18 04:00N 49°18' W 123°02'0 0.0
2017-May-18 03:30N 49°18' W 123°02'0 0.0
2017-May-18 03:00N 49°18' W 123°02'0 0.0
2017-May-18 02:30N 49°18' W 123°02'0 0.0
2017-May-18 02:00N 49°18' W 123°02'0 0.0
2017-May-18 01:30N 49°18' W 123°02'0 0.0
2017-May-18 01:00N 49°18' W 123°02'0 0.0
2017-May-18 00:30N 49°18' W 123°02'0 0.0
2017-May-17 23:54N 49°18' W 123°02'0 0.0
2017-May-17 23:24N 49°18' W 123°02'0 0.0
2017-May-17 22:57N 49°18' W 123°02'0 0.0
2017-May-17 22:21N 49°18' W 123°02'0 0.0
2017-May-17 21:57N 49°18' W 123°02'0 0.0
2017-May-17 21:30N 49°18' W 123°02'0 0.0
2017-May-17 20:57N 49°18' W 123°02'0 0.0
2017-May-17 20:30N 49°18' W 123°02'0 0.0
2017-May-17 20:00N 49°18' W 123°02'0 0.0
2017-May-17 19:27N 49°18' W 123°02'0 0.0
2017-May-17 19:00N 49°18' W 123°02'0 0.0
2017-May-17 18:15N 49°18' W 123°02'0 0.0
2017-May-17 17:57N 49°18' W 123°02'0 0.0
2017-May-17 17:30N 49°18' W 123°02'0 0.0
2017-May-17 17:00N 49°18' W 123°02'0 0.0
2017-May-17 16:30N 49°18' W 123°02'0 0.0
2017-May-17 15:51N 49°18' W 123°02'0 0.0
2017-May-17 15:27N 49°18' W 123°02'0 0.0
2017-May-17 15:00N 49°18' W 123°02'0 0.0
2017-May-17 14:00N 49°18' W 123°02'0 0.0
2017-May-17 13:30N 49°18' W 123°02'0 0.0
2017-May-17 13:00N 49°18' W 123°02'0 0.0
2017-May-17 12:30N 49°18' W 123°02'0 0.0
2017-May-17 12:00N 49°18' W 123°02'0 0.0
2017-May-17 11:30N 49°18' W 123°02'0 0.0
2017-May-17 11:00N 49°18' W 123°02'0 0.0
2017-May-17 10:30N 49°18' W 123°02'0 0.0
2017-May-17 10:00N 49°18' W 123°02'0 0.0
2017-May-17 09:30N 49°18' W 123°02'0 0.0
2017-May-17 09:00N 49°18' W 123°02'0 0.0
2017-May-17 08:30N 49°18' W 123°02'0 0.0
2017-May-17 08:00N 49°18' W 123°02'0 0.0
2017-May-17 07:30N 49°18' W 123°02'0 0.0
2017-May-17 07:00N 49°18' W 123°02'0 0.0
2017-May-17 06:30N 49°18' W 123°02'0 0.0
2017-May-17 06:00N 49°18' W 123°02'0 0.0
2017-May-17 05:30N 49°18' W 123°02'0 0.0
2017-May-17 05:00N 49°18' W 123°02'0 0.0
2017-May-17 04:30N 49°18' W 123°02'0 0.0
2017-May-17 04:00N 49°18' W 123°02'0 0.0
2017-May-17 03:30N 49°18' W 123°02'0 0.0
2017-May-17 03:00N 49°18' W 123°02'0 0.0
2017-May-17 02:27N 49°18' W 123°02'0 0.0
2017-May-17 02:00N 49°18' W 123°02'0 0.0
2017-May-17 01:27N 49°18' W 123°02'0 0.0
2017-May-17 01:00N 49°18' W 123°02'0 0.0
2017-May-17 00:30N 49°18' W 123°02'0 0.0
2017-May-16 23:57N 49°18' W 123°02'0 0.0
2017-May-16 23:30N 49°18' W 123°02'0 0.0
2017-May-16 23:00N 49°18' W 123°02'0 0.0
2017-May-16 22:30N 49°18' W 123°02'0 0.0
2017-May-16 22:00N 49°18' W 123°02'0 0.0
2017-May-16 21:27N 49°18' W 123°02'0 0.0
2017-May-16 21:00N 49°18' W 123°02'0 0.0
2017-May-16 20:30N 49°18' W 123°02'0 0.0
2017-May-16 19:57N 49°18' W 123°02'0 0.0
2017-May-16 19:27N 49°18' W 123°02'0 0.0
2017-May-16 19:00N 49°18' W 123°02'0 0.0
2017-May-16 18:29N 49°18' W 123°02'0 0.0
2017-May-16 17:59N 49°18' W 123°02'0 0.0
2017-May-16 17:26N 49°18' W 123°02'0 0.0
2017-May-16 16:59N 49°18' W 123°02'0 0.0
2017-May-16 16:26N 49°18' W 123°02'0 0.0
2017-May-16 15:59N 49°18' W 123°02'0 0.0
2017-May-16 15:29N 49°18' W 123°02'0 0.0
2017-May-16 14:59N 49°18' W 123°02'0 0.0
2017-May-16 13:59N 49°18' W 123°02'0 0.0
2017-May-16 13:29N 49°18' W 123°02'0 0.0
2017-May-16 12:59N 49°18' W 123°02'0 0.0
2017-May-16 12:29N 49°18' W 123°02'0 0.0
2017-May-16 11:59N 49°18' W 123°02'0 0.0
2017-May-16 11:26N 49°18' W 123°02'0 0.0
2017-May-16 10:59N 49°18' W 123°02'0 0.0
2017-May-16 10:29N 49°18' W 123°02'0 0.0
2017-May-16 09:56N 49°18' W 123°02'0 0.0
2017-May-16 09:29N 49°18' W 123°02'0 0.0
2017-May-16 08:56N 49°18' W 123°02'0 0.0
2017-May-16 08:29N 49°18' W 123°02'0 0.0
2017-May-16 07:59N 49°18' W 123°02'0 0.0
2017-May-16 07:29N 49°18' W 123°02'0 0.0
2017-May-16 06:59N 49°18' W 123°02'0 0.0
2017-May-16 06:29N 49°18' W 123°02'  
Track history (hours):
 
Tides and Currents Weather Stations Pressure Air Temp Water Temp Dewpoint Dewpoint Depression Visibility Wind Speed Wind Dir Waves Ship Positions

Westwood Rainier

Last reported at 2017-May-26 06:00 UTC. Time now 2017-May-26 16:38 UTC.
Position N 52°00' W 145°42'.

Type: Cargo ship. MMSI: 311348993.

Wind from 340 at 10 knots

Barometer 1027.7 mb
Air temperature 7.0 ° C
Visibility: greater than 5.4 NM
Dewpoint 4.7 ° C

Date/timePositionNaut miles runAvg speedWind from/ knotsBaromVisibWave heightAir tempDewpointWater temp
2017-May-26 06:00N 52°00' W 145°42'15813.1 340 / 101027.7 5.4 7.0 4.7
2017-May-25 18:00N 51°00' W 141°48'42370.6 270 / 111030.4 5.4 7.0 2.1
2017-May-25 12:00N 50°24' W 130°42'27145.1 360 / 221031.6 5.4 9.0 4.5 7.0
2017-May-25 06:00N 49°54' W 137°42'8614.3 360 / 261032.2 5.4 7.0 4.7
2017-May-25 00:00N 49°18' W 135°42'7712.8 360 / 301032.7 2.2 9.0 6.9 8.0
2017-May-24 18:00N 48°48' W 133°54'7913.1 360 / 361031.8 5.4 9.0 4.5
2017-May-24 12:00N 49°30' W 132°12'16513.7 320 / 351028.9 5.4 14.0 8.0
2017-May-24 00:00N 48°30' W 128°18'7612.6 320 / 401024.110.8 13.0 6.8
2017-May-23 18:00N 48°24' W 126°24'7423.6 340 / 261020.5 2.2 13.011.1
2017-May-23 17:59N 48°30' W 126°29'613.0
2017-May-23 17:30N 48°30' W 126°20'713.1
2017-May-23 17:00N 48°30' W 126°10'713.1
2017-May-23 16:30N 48°31' W 126°00'613.0
2017-May-23 16:00N 48°31' W 125°50'713.0
2017-May-23 15:30N 48°31' W 125°40'713.3
2017-May-23 15:00N 48°30' W 125°30'1414.3
2017-May-23 14:00N 48°31' W 125°09'713.8
2017-May-23 13:30N 48°31' W 124°58'714.3
2017-May-23 13:00N 48°31' W 124°48'714.5
2017-May-23 12:30N 48°29' W 124°37'815.0
2017-May-23 12:00N 48°26' W 124°27'714.5
2017-May-23 11:30N 48°23' W 124°17'714.1
2017-May-23 11:00N 48°20' W 124°07'714.0
2017-May-23 10:30N 48°18' W 123°57'713.7
2017-May-23 10:00N 48°17' W 123°47'713.3
2017-May-23 09:30N 48°16' W 123°37'3 6.2
2017-May-23 09:00N 48°15' W 123°32'611.3
2017-May-23 08:29N 48°12' W 123°25'5 9.8
2017-May-23 07:59N 48°09' W 123°19'713.9
2017-May-23 07:30N 48°12' W 123°10'714.2
2017-May-23 07:00N 48°12' W 122°59'714.3
2017-May-23 06:30N 48°11' W 122°48'713.3
2017-May-23 05:59N 48°07' W 122°40'714.4
2017-May-23 05:30N 48°01' W 122°37'714.3
2017-May-23 05:01N 47°56' W 122°30'815.4
2017-May-23 04:31N 47°48' W 122°27'714.4
2017-May-23 04:01N 47°41' W 122°27'815.2
2017-May-23 03:31N 47°33' W 122°26'714.9
2017-May-23 03:00N 47°26' W 122°23'612.4
2017-May-23 02:30N 47°20' W 122°26'4 0.4
2017-May-22 15:06N 47°16' W 122°25'0 1.1
2017-May-22 14:40N 47°16' W 122°25'4 6.0
2017-May-22 14:00N 47°20' W 122°27'612.0
2017-May-22 13:30N 47°26' W 122°24'815.5
2017-May-22 13:00N 47°34' W 122°27'815.2
2017-May-22 12:30N 47°41' W 122°28'714.9
2017-May-22 12:00N 47°49' W 122°28'714.4
2017-May-22 11:30N 47°56' W 122°31'713.6
2017-May-22 11:00N 48°01' W 122°38'713.6
2017-May-22 10:28N 48°07' W 122°42'714.3
2017-May-22 10:00N 48°11' W 122°50'815.2
2017-May-22 09:30N 48°12' W 123°01'815.9
2017-May-22 09:00N 48°12' W 123°13'813.7
2017-May-22 08:24N 48°11' W 123°25'512.0
2017-May-22 08:00N 48°15' W 123°29'714.2
2017-May-22 07:30N 48°21' W 123°25'5 9.9
2017-May-22 06:59N 48°23' W 123°18'4 7.6
2017-May-22 06:30N 48°25' W 123°13'713.9
2017-May-22 05:59N 48°32' W 123°13'715.1
2017-May-22 05:30N 48°39' W 123°15'612.3
2017-May-22 05:00N 48°44' W 123°09'714.6
2017-May-22 04:30N 48°48' W 123°00'815.0
2017-May-22 04:00N 48°54' W 123°08'815.8
2017-May-22 03:31N 48°59' W 123°17'714.8
2017-May-22 03:00N 49°05' W 123°24'714.2
2017-May-22 02:30N 49°12' W 123°22'713.3
2017-May-22 02:00N 49°18' W 123°17'612.5
2017-May-22 01:30N 49°19' W 123°08'2 3.3
2017-May-22 01:00N 49°17' W 123°06'0 0.0
2017-May-22 00:28N 49°17' W 123°06'0 0.0
2017-May-21 23:58N 49°17' W 123°06'0 0.0
2017-May-21 23:28N 49°17' W 123°06'0 0.0
2017-May-21 22:58N 49°17' W 123°06'0 0.0
2017-May-21 22:28N 49°17' W 123°06'0 0.0
2017-May-21 21:58N 49°17' W 123°06'0 0.0
2017-May-21 21:28N 49°17' W 123°06'0 0.0
2017-May-21 20:58N 49°17' W 123°06'0 0.0
2017-May-21 20:28N 49°17' W 123°06'0 0.0
2017-May-21 19:58N 49°17' W 123°06'0 0.0
2017-May-21 19:28N 49°17' W 123°06'0 0.0
2017-May-21 18:58N 49°17' W 123°06'0 0.0
2017-May-21 18:28N 49°17' W 123°06'0 0.0
2017-May-21 17:58N 49°17' W 123°06'0 0.0
2017-May-21 17:28N 49°17' W 123°06'0 0.0
2017-May-21 16:58N 49°17' W 123°06'0 0.0
2017-May-21 16:28N 49°17' W 123°06'0 0.0
2017-May-21 15:58N 49°17' W 123°06'0 0.1
2017-May-21 15:28N 49°17' W 123°06'0 0.0
2017-May-21 14:58N 49°17' W 123°06'0 0.0
2017-May-21 13:58N 49°17' W 123°06'0 0.0
2017-May-21 13:28N 49°17' W 123°06'0 0.1
2017-May-21 13:01N 49°17' W 123°06'0 0.8
2017-May-21 12:31N 49°18' W 123°06'2 4.5
2017-May-21 12:01N 49°18' W 123°02'0 0.1
2017-May-21 11:30N 49°18' W 123°02'0 0.0
2017-May-21 11:01N 49°18' W 123°02'0 0.0
2017-May-21 10:30N 49°18' W 123°02'0 0.0
2017-May-21 10:00N 49°18' W 123°02'0 0.0
2017-May-21 09:30N 49°18' W 123°02'0 0.0
2017-May-21 09:00N 49°18' W 123°02'0 0.0
2017-May-21 08:30N 49°18' W 123°02'0 0.0
2017-May-21 08:00N 49°18' W 123°02'0 0.0
2017-May-21 07:30N 49°18' W 123°02'0 0.0
2017-May-21 07:00N 49°18' W 123°02'0 0.0
2017-May-21 06:30N 49°18' W 123°02'0 0.0
2017-May-21 06:00N 49°18' W 123°02'0 0.0
2017-May-21 05:30N 49°18' W 123°02'0 0.0
2017-May-21 05:00N 49°18' W 123°02'0 0.0
2017-May-21 04:30N 49°18' W 123°02'0 0.0
2017-May-21 04:00N 49°18' W 123°02'0 0.0
2017-May-21 03:30N 49°18' W 123°02'0 0.0
2017-May-21 02:57N 49°18' W 123°02'0 0.0
2017-May-21 02:30N 49°18' W 123°02'0 0.0
2017-May-21 02:00N 49°18' W 123°02'0 0.0
2017-May-21 01:27N 49°18' W 123°02'0 0.0
2017-May-21 00:51N 49°18' W 123°02'0 0.0
2017-May-21 00:30N 49°18' W 123°02'0 0.0
2017-May-21 00:00N 49°18' W 123°02'0 0.0
2017-May-20 23:30N 49°18' W 123°02'0 0.0
2017-May-20 23:00N 49°18' W 123°02'0 0.0
2017-May-20 22:30N 49°18' W 123°02'0 0.0
2017-May-20 21:57N 49°18' W 123°02'0 0.0
2017-May-20 21:30N 49°18' W 123°02'0 0.0
2017-May-20 20:57N 49°18' W 123°02'0 0.0
2017-May-20 20:27N 49°18' W 123°02'0 0.0
2017-May-20 20:00N 49°18' W 123°02'0 0.0
2017-May-20 19:27N 49°18' W 123°02'0 0.0
2017-May-20 18:51N 49°18' W 123°02'0 0.0
2017-May-20 18:21N 49°18' W 123°02'0 0.0
2017-May-20 18:00N 49°18' W 123°02'0 0.0
2017-May-20 17:30N 49°18' W 123°02'0 0.0
2017-May-20 16:57N 49°18' W 123°02'0 0.0
2017-May-20 16:30N 49°18' W 123°02'0 0.0
2017-May-20 15:57N 49°18' W 123°02'0 0.0
2017-May-20 15:27N 49°18' W 123°02'0 0.0
2017-May-20 14:57N 49°18' W 123°02'0 0.0
2017-May-20 13:57N 49°18' W 123°02'0 0.0
2017-May-20 13:30N 49°18' W 123°02'0 0.0
2017-May-20 12:57N 49°18' W 123°02'0 0.0
2017-May-20 12:27N 49°18' W 123°02'0 0.0
2017-May-20 11:57N 49°18' W 123°02'0 0.0
2017-May-20 11:27N 49°18' W 123°02'0 0.0
2017-May-20 11:00N 49°18' W 123°02'0 0.0
2017-May-20 10:30N 49°18' W 123°02'0 0.0
2017-May-20 10:00N 49°18' W 123°02'0 0.0
2017-May-20 09:30N 49°18' W 123°02'0 0.0
2017-May-20 09:00N 49°18' W 123°02'0 0.0
2017-May-20 08:30N 49°18' W 123°02'0 0.0
2017-May-20 08:00N 49°18' W 123°02'0 0.0
2017-May-20 07:30N 49°18' W 123°02'0 0.0
2017-May-20 06:57N 49°18' W 123°02'0 0.0
2017-May-20 06:30N 49°18' W 123°02'0 0.0
2017-May-20 06:00N 49°18' W 123°02'0 0.0
2017-May-20 05:30N 49°18' W 123°02'0 0.0
2017-May-20 05:00N 49°18' W 123°02'0 0.0
2017-May-20 04:30N 49°18' W 123°02'0 0.0
2017-May-20 04:00N 49°18' W 123°02'0 0.0
2017-May-20 03:30N 49°18' W 123°02'0 0.0
2017-May-20 03:00N 49°18' W 123°02'0 0.0
2017-May-20 02:27N 49°18' W 123°02'0 0.0
2017-May-20 01:54N 49°18' W 123°02'0 0.0
2017-May-20 01:27N 49°18' W 123°02'0 0.0
2017-May-20 00:57N 49°18' W 123°02'0 0.0
2017-May-20 00:21N 49°18' W 123°02'0 0.0
2017-May-19 23:57N 49°18' W 123°02'0 0.0
2017-May-19 23:27N 49°18' W 123°02'0 0.0
2017-May-19 23:00N 49°18' W 123°02'0 0.0
2017-May-19 22:27N 49°18' W 123°02'0 0.0
2017-May-19 22:00N 49°18' W 123°02'0 0.0
2017-May-19 21:27N 49°18' W 123°02'0 0.0
2017-May-19 20:57N 49°18' W 123°02'0 0.0
2017-May-19 20:24N 49°18' W 123°02'0 0.0
2017-May-19 19:57N 49°18' W 123°02'0 0.0
2017-May-19 19:27N 49°18' W 123°02'0 0.0
2017-May-19 19:00N 49°18' W 123°02'0 0.0
2017-May-19 18:30N 49°18' W 123°02'0 0.0
2017-May-19 18:00N 49°18' W 123°02'0 0.0
2017-May-19 17:30N 49°18' W 123°02'0 0.0
2017-May-19 17:00N 49°18' W 123°02'0 0.0
2017-May-19 16:30N 49°18' W 123°02'0 0.0
2017-May-19 16:00N 49°18' W 123°02'0 0.0
2017-May-19 15:30N 49°18' W 123°02'0 0.0
2017-May-19 14:51N 49°18' W 123°02'0 0.0
2017-May-19 14:00N 49°18' W 123°02'0 0.0
2017-May-19 13:30N 49°18' W 123°02'0 0.0
2017-May-19 13:00N 49°18' W 123°02'0 0.0
2017-May-19 12:30N 49°18' W 123°02'0 0.0
2017-May-19 12:00N 49°18' W 123°02'0 0.0
2017-May-19 11:30N 49°18' W 123°02'0 0.0
2017-May-19 11:00N 49°18' W 123°02'0 0.0
2017-May-19 10:30N 49°18' W 123°02'0 0.0
2017-May-19 10:00N 49°18' W 123°02'0 0.0
2017-May-19 09:30N 49°18' W 123°02'0 0.0
2017-May-19 09:00N 49°18' W 123°02'0 0.0
2017-May-19 08:30N 49°18' W 123°02'0 0.0
2017-May-19 08:00N 49°18' W 123°02'0 0.0
2017-May-19 07:30N 49°18' W 123°02'0 0.0
2017-May-19 07:00N 49°18' W 123°02'0 0.0
2017-May-19 06:30N 49°18' W 123°02'0 0.0
2017-May-19 06:00N 49°18' W 123°02'0 0.0
2017-May-19 05:27N 49°18' W 123°02'0 0.0
2017-May-19 05:00N 49°18' W 123°02'0 0.0
2017-May-19 04:30N 49°18' W 123°02'0 0.0
2017-May-19 04:00N 49°18' W 123°02'0 0.0
2017-May-19 03:30N 49°18' W 123°02'0 0.0
2017-May-19 02:48N 49°18' W 123°02'0 0.0
2017-May-19 02:27N 49°18' W 123°02'0 0.0
2017-May-19 02:00N 49°18' W 123°02'0 0.0
2017-May-19 01:27N 49°18' W 123°02'0 0.0
2017-May-19 00:57N 49°18' W 123°02'0 0.0
2017-May-19 00:27N 49°18' W 123°02'0 0.0
2017-May-18 23:57N 49°18' W 123°02'0 0.0
2017-May-18 23:27N 49°18' W 123°02'0 0.0
2017-May-18 22:57N 49°18' W 123°02'0 0.0
2017-May-18 22:27N 49°18' W 123°02'0 0.0
2017-May-18 22:00N 49°18' W 123°02'0 0.0
2017-May-18 21:30N 49°18' W 123°02'0 0.0
2017-May-18 21:00N 49°18' W 123°02'0 0.0
2017-May-18 20:27N 49°18' W 123°02'0 0.0
2017-May-18 20:00N 49°18' W 123°02'0 0.0
2017-May-18 19:30N 49°18' W 123°02'0 0.0
2017-May-18 19:00N 49°18' W 123°02'0 0.0
2017-May-18 18:27N 49°18' W 123°02'0 0.0
2017-May-18 18:00N 49°18' W 123°02'0 0.0
2017-May-18 17:27N 49°18' W 123°02'0 0.0
2017-May-18 16:54N 49°18' W 123°02'0 0.0
2017-May-18 16:30N 49°18' W 123°02'0 0.0
2017-May-18 15:54N 49°18' W 123°02'0 0.0
2017-May-18 15:30N 49°18' W 123°02'0 0.0
2017-May-18 15:00N 49°18' W 123°02'0 0.0
2017-May-18 14:00N 49°18' W 123°02'0 0.0
2017-May-18 13:30N 49°18' W 123°02'0 0.0
2017-May-18 13:00N 49°18' W 123°02'0 0.0
2017-May-18 12:30N 49°18' W 123°02'0 0.0
2017-May-18 12:00N 49°18' W 123°02'0 0.0
2017-May-18 11:30N 49°18' W 123°02'0 0.0
2017-May-18 11:00N 49°18' W 123°02'0 0.0
2017-May-18 10:24N 49°18' W 123°02'0 0.0
2017-May-18 10:00N 49°18' W 123°02'0 0.0
2017-May-18 09:30N 49°18' W 123°02'0 0.0
2017-May-18 09:00N 49°18' W 123°02'0 0.0
2017-May-18 08:30N 49°18' W 123°02'0 0.0
2017-May-18 08:00N 49°18' W 123°02'0 0.0
2017-May-18 07:30N 49°18' W 123°02'0 0.0
2017-May-18 06:57N 49°18' W 123°02'0 0.0
2017-May-18 06:30N 49°18' W 123°02'0 0.0
2017-May-18 06:00N 49°18' W 123°02'0 0.0
2017-May-18 05:30N 49°18' W 123°02'0 0.0
2017-May-18 05:00N 49°18' W 123°02'0 0.0
2017-May-18 04:30N 49°18' W 123°02'0 0.0
2017-May-18 04:00N 49°18' W 123°02'0 0.0
2017-May-18 03:30N 49°18' W 123°02'0 0.0
2017-May-18 03:00N 49°18' W 123°02'0 0.0
2017-May-18 02:30N 49°18' W 123°02'0 0.0
2017-May-18 02:00N 49°18' W 123°02'0 0.0
2017-May-18 01:30N 49°18' W 123°02'0 0.0
2017-May-18 01:00N 49°18' W 123°02'0 0.0
2017-May-18 00:30N 49°18' W 123°02'0 0.0
2017-May-17 23:54N 49°18' W 123°02'0 0.0
2017-May-17 23:24N 49°18' W 123°02'0 0.0
2017-May-17 22:57N 49°18' W 123°02'0 0.0
2017-May-17 22:21N 49°18' W 123°02'0 0.0
2017-May-17 21:57N 49°18' W 123°02'0 0.0
2017-May-17 21:30N 49°18' W 123°02'0 0.0
2017-May-17 20:57N 49°18' W 123°02'0 0.0
2017-May-17 20:30N 49°18' W 123°02'0 0.0
2017-May-17 20:00N 49°18' W 123°02'0 0.0
2017-May-17 19:27N 49°18' W 123°02'0 0.0
2017-May-17 19:00N 49°18' W 123°02'0 0.0
2017-May-17 18:15N 49°18' W 123°02'0 0.0
2017-May-17 17:57N 49°18' W 123°02'0 0.0
2017-May-17 17:30N 49°18' W 123°02'0 0.0
2017-May-17 17:00N 49°18' W 123°02'0 0.0
2017-May-17 16:30N 49°18' W 123°02'0 0.0
2017-May-17 15:51N 49°18' W 123°02'0 0.0
2017-May-17 15:27N 49°18' W 123°02'0 0.0
2017-May-17 15:00N 49°18' W 123°02'0 0.0
2017-May-17 14:00N 49°18' W 123°02'0 0.0
2017-May-17 13:30N 49°18' W 123°02'0 0.0
2017-May-17 13:00N 49°18' W 123°02'0 0.0
2017-May-17 12:30N 49°18' W 123°02'0 0.0
2017-May-17 12:00N 49°18' W 123°02'0 0.0
2017-May-17 11:30N 49°18' W 123°02'0 0.0
2017-May-17 11:00N 49°18' W 123°02'0 0.0
2017-May-17 10:30N 49°18' W 123°02'0 0.0
2017-May-17 10:00N 49°18' W 123°02'0 0.0
2017-May-17 09:30N 49°18' W 123°02'0 0.0
2017-May-17 09:00N 49°18' W 123°02'0 0.0
2017-May-17 08:30N 49°18' W 123°02'0 0.0
2017-May-17 08:00N 49°18' W 123°02'0 0.0
2017-May-17 07:30N 49°18' W 123°02'0 0.0
2017-May-17 07:00N 49°18' W 123°02'0 0.0
2017-May-17 06:30N 49°18' W 123°02'0 0.0
2017-May-17 06:00N 49°18' W 123°02'0 0.0
2017-May-17 05:30N 49°18' W 123°02'0 0.0
2017-May-17 05:00N 49°18' W 123°02'0 0.0
2017-May-17 04:30N 49°18' W 123°02'0 0.0
2017-May-17 04:00N 49°18' W 123°02'0 0.0
2017-May-17 03:30N 49°18' W 123°02'0 0.0
2017-May-17 03:00N 49°18' W 123°02'0 0.0
2017-May-17 02:27N 49°18' W 123°02'0 0.0
2017-May-17 02:00N 49°18' W 123°02'0 0.0
2017-May-17 01:27N 49°18' W 123°02'0 0.0
2017-May-17 01:00N 49°18' W 123°02'0 0.0
2017-May-17 00:30N 49°18' W 123°02'0 0.0
2017-May-16 23:57N 49°18' W 123°02'0 0.0
2017-May-16 23:30N 49°18' W 123°02'0 0.0
2017-May-16 23:00N 49°18' W 123°02'0 0.0
2017-May-16 22:30N 49°18' W 123°02'0 0.0
2017-May-16 22:00N 49°18' W 123°02'0 0.0
2017-May-16 21:27N 49°18' W 123°02'0 0.0
2017-May-16 21:00N 49°18' W 123°02'0 0.0
2017-May-16 20:30N 49°18' W 123°02'0 0.0
2017-May-16 19:57N 49°18' W 123°02'0 0.0
2017-May-16 19:27N 49°18' W 123°02'0 0.0
2017-May-16 19:00N 49°18' W 123°02'0 0.0
2017-May-16 18:29N 49°18' W 123°02'0 0.0
2017-May-16 17:59N 49°18' W 123°02'0 0.0
2017-May-16 17:26N 49°18' W 123°02'0 0.0
2017-May-16 16:59N 49°18' W 123°02'0 0.0
2017-May-16 16:26N 49°18' W 123°02'0 0.0
2017-May-16 15:59N 49°18' W 123°02'0 0.0
2017-May-16 15:29N 49°18' W 123°02'0 0.0
2017-May-16 14:59N 49°18' W 123°02'0 0.0
2017-May-16 13:59N 49°18' W 123°02'0 0.0
2017-May-16 13:29N 49°18' W 123°02'0 0.0
2017-May-16 12:59N 49°18' W 123°02'0 0.0
2017-May-16 12:29N 49°18' W 123°02'0 0.0
2017-May-16 11:59N 49°18' W 123°02'0 0.0
2017-May-16 11:26N 49°18' W 123°02'0 0.0
2017-May-16 10:59N 49°18' W 123°02'0 0.0
2017-May-16 10:29N 49°18' W 123°02'0 0.0
2017-May-16 09:56N 49°18' W 123°02'0 0.0
2017-May-16 09:29N 49°18' W 123°02'0 0.0
2017-May-16 08:56N 49°18' W 123°02'0 0.0
2017-May-16 08:29N 49°18' W 123°02'0 0.0
2017-May-16 07:59N 49°18' W 123°02'0 0.0
2017-May-16 07:29N 49°18' W 123°02'0 0.0
2017-May-16 06:59N 49°18' W 123°02'0 0.0
2017-May-16 06:29N 49°18' W 123°02'  

Dump ship's entire track history